Seawillow, Texas
Current Conditions -  °F | °C
As of 2:48 PM on Friday 31 Oct 2014 (Local Time) from KHYI Reporting Station
Clear Clear  
Wind Chill: 79°   Ceiling: Unl
Heat Index: 79°   Visibility: 10mi
Dew Point: 39°   Wind: 17mph
Humidity: 24%   Direction: 10°N
Pressure: 30.23"   Gusts: 29mph
Location:  29.8965°N, 97.6713°W
Report Text: KHYI 311948Z 01015G25KT 10SM CLR 26/04 A3023
Loading
Personal Weather Stations






























Interactive Weather Map
Tropical Storm Tracking
New forecast layout! Learn more

10-Day Weather Forecast

Advertisements
Track Severe Weather on mobile